Latest Weather Observations for Kununurra Airport

IDD60801

Issued at 8:41 am CST Sunday 18 April 2021 (issued every 10 minutes, with the page automatically refreshed every 10 minutes)

About weather observations | Map of weather stations | Latest weather observations for NT | Other Formats
Station Details ID: 002056 Name: KUNUNURRA AERO Lat: -15.78 Lon: 128.71 Height: 44.0 m
Data from the previous 72 hours. | See also: Recent months at Kununurra Airport
Date/Time
CST
Temp
°C
App
Temp
°C
Dew
Point
°C
Rel
Hum
%
Delta-T
°C
Wind Press
QNH
hPa
Press
MSL
hPa
Rain since
9am
mm
Dir  Spd
km/h
Gust
km/h
Spd
kts
Gust
kts
18/08:30am 25.1 21.9 9.8 38 8.4 SSE 17 28 9 15 1015.4 1015.2 -
18/08:00am 24.2 22.3 10.5 42 7.6 S 11 17 6 9 1015.2 1015.0 -
18/07:30am 23.1 21.2 10.5 45 6.9 S 11 17 6 9 1014.9 1014.6 -
18/07:00am 24.3 21.1 9.8 40 8.0 SSE 17 24 9 13 1014.3 1014.0 -
18/06:30am 24.3 21.3 10.6 42 7.6 SSE 17 22 9 12 1013.9 1013.6 -
18/06:00am 24.1 22.2 11.8 46 7.0 SSE 13 17 7 9 1013.6 1013.3 -
18/05:30am 23.6 21.9 12.3 49 6.4 SSE 13 15 7 8 1013.4 1013.1 -
18/05:00am 24.0 22.7 12.6 49 6.6 SSE 11 15 6 8 1013.3 1013.0 -
18/04:30am 24.2 22.9 12.5 48 6.7 SSE 11 15 6 8 1013.4 1013.1 0.0
18/04:00am 23.0 22.5 13.8 56 5.4 S 9 13 5 7 1013.4 1013.1 -
18/03:30am 21.6 21.5 14.0 62 4.4 SSW 7 9 4 5 1013.5 1013.2 -
18/03:00am 24.8 23.9 12.7 47 7.0 SSE 9 13 5 7 1013.5 1013.2 -
18/02:30am 24.8 23.3 13.0 47 6.9 SSE 13 15 7 8 1013.6 1013.3 -
18/02:00am 24.9 23.4 13.1 48 6.9 SSE 13 15 7 8 1013.6 1013.3 -
18/01:30am 24.7 24.3 14.2 52 6.2 SE 9 13 5 7 1013.9 1013.6 -
18/01:28am 24.7 24.4 14.5 53 6.1 SE 9 11 5 6 1014.0 1013.7 -
18/01:00am 19.7 20.3 15.8 78 2.3 SE 7 9 4 5 1014.0 1013.7 -
18/12:30am 19.9 20.5 15.3 75 2.7 SSE 6 7 3 4 1014.0 1013.7 -
18/12:00am 20.2 21.7 14.6 70 3.3 CALM 0 0 0 0 1013.9 1013.6 -
 
Date/Time
CST
Temp
°C
App
Temp
°C
Dew
Point
°C
Rel
Hum
%
Delta-T
°C
Wind Press
QNH
hPa
Press
MSL
hPa
Rain since
9am
mm
Dir  Spd
km/h
Gust
km/h
Spd
kts
Gust
kts
17/11:30pm 21.2 21.7 15.5 70 3.4 ESE 7 9 4 5 1013.9 1013.6 -
17/11:00pm 20.9 21.7 15.9 73 3.0 SE 6 7 3 4 1014.0 1013.7 -
17/10:30pm 20.5 21.4 16.1 76 2.6 SSE 6 7 3 4 1014.1 1013.8 0.0
17/10:00pm 21.3 22.9 16.0 72 3.2 SSE 2 6 1 3 1014.2 1013.9 -
17/09:30pm 21.6 23.3 16.3 72 3.2 S 2 6 1 3 1014.1 1013.8 -
17/09:00pm 23.2 23.8 15.3 61 4.7 SSE 6 7 3 4 1013.9 1013.6 -
17/08:30pm 24.0 24.6 15.8 60 5.0 SSE 7 9 4 5 1013.5 1013.2 -
17/08:00pm 24.9 25.3 15.2 54 5.8 ESE 7 7 4 4 1013.1 1012.8 -
17/07:30pm 28.6 27.8 12.9 38 9.3 SE 9 13 5 7 1012.8 1012.5 -
17/07:00pm 29.7 28.6 13.0 35 9.9 SSE 11 15 6 8 1012.5 1012.2 -
17/06:30pm 31.0 29.4 12.8 32 10.8 SSE 13 19 7 10 1012.2 1011.9 -
17/06:00pm 32.1 30.1 12.8 30 11.5 SSE 15 20 8 11 1012.1 1011.8 -
17/05:30pm 32.9 30.5 12.5 29 12.2 SSE 17 26 9 14 1011.8 1011.5 -
17/05:00pm 33.5 31.2 13.0 29 12.3 SE 17 20 9 11 1011.6 1011.3 -
17/04:30pm 33.4 30.5 12.4 28 12.5 SE 19 28 10 15 1011.4 1011.1 -
17/04:00pm 33.7 30.7 12.7 28 12.6 SSE 20 28 11 15 1011.6 1011.3 -
17/03:30pm 33.4 30.4 12.4 28 12.5 SE 20 30 11 16 1011.8 1011.5 -
17/03:00pm 33.4 30.4 12.4 28 12.5 SE 20 28 11 15 1012.1 1011.8 -
17/02:30pm 33.2 30.1 12.2 28 12.5 SSE 20 32 11 17 1012.3 1012.0 0.0
17/02:00pm 32.9 29.3 12.0 28 12.4 SE 22 32 12 17 1012.7 1012.4 0.0
17/01:30pm 33.1 30.1 12.7 29 12.2 SE 20 33 11 18 1013.2 1012.9 0.0
17/01:00pm 33.1 30.3 14.2 32 11.6 SE 22 30 12 16 1013.8 1013.5 0.0
17/12:30pm 32.2 27.9 11.9 29 12.0 ESE 26 35 14 19 1014.4 1014.1 0.0
17/12:00pm 31.9 28.2 12.7 31 11.4 SE 24 32 13 17 1015.1 1014.9 0.0
17/11:30am 31.5 27.5 11.8 30 11.5 ESE 24 37 13 20 1015.5 1015.3 0.0
17/11:00am 30.6 25.6 11.1 30 11.3 ESE 28 39 15 21 1015.9 1015.7 0.0
17/10:30am 30.3 24.4 10.3 29 11.4 ESE 32 43 17 23 1016.1 1015.9 0.0
17/10:00am 29.9 24.8 11.9 33 10.5 SE 30 46 16 25 1016.1 1015.9 0.0
17/09:30am 29.3 23.7 11.4 33 10.3 SE 32 44 17 24 1016.1 1015.9 0.0
17/09:00am 28.8 23.7 10.5 32 10.4 SE 28 41 15 22 1016.0 1015.8 0.0
17/08:30am 28.4 23.3 10.6 33 10.1 SE 28 39 15 21 1015.8 1015.6 0.0
17/08:00am 27.7 23.4 10.9 35 9.5 SE 24 35 13 19 1015.3 1015.1 0.0
17/07:30am 27.2 24.9 11.7 38 8.9 SE 15 24 8 13 1014.9 1014.6 0.0
17/07:00am 27.7 24.5 11.3 36 9.4 SE 19 28 10 15 1014.3 1014.0 0.0
17/06:30am 26.1 24.2 12.9 44 7.7 SSE 15 20 8 11 1013.9 1013.6 0.0
17/06:00am 23.9 23.3 15.7 60 5.0 S 13 20 7 11 1013.7 1013.4 0.0
17/05:30am 20.1 21.5 17.7 86 1.5 SSW 7 9 4 5 1013.2 1012.9 0.0
17/05:00am 19.7 21.1 17.3 86 1.5 S 6 7 3 4 1013.1 1012.8 0.0
17/04:30am 20.4 21.8 17.4 83 1.8 S 6 7 3 4 1012.9 1012.6 0.0
17/04:00am 20.7 22.4 18.1 85 1.6 SSE 6 7 3 4 1012.8 1012.5 0.0
17/03:30am 20.7 22.3 17.9 84 1.7 ESE 6 6 3 3 1012.7 1012.4 0.0
17/03:00am 21.7 23.7 18.7 83 1.9 ESE 6 9 3 5 1012.7 1012.4 0.0
17/02:30am 20.7 24.0 19.0 90 1.1 CALM 0 0 0 0 1012.7 1012.4 0.0
17/02:00am 21.0 24.5 19.5 91 1.0 CALM 0 0 0 0 1012.8 1012.5 0.0
17/01:30am 20.7 24.0 19.2 91 0.9 CALM 0 0 0 0 1012.9 1012.6 0.0
17/01:00am 21.4 25.0 19.7 90 1.1 CALM 0 0 0 0 1012.9 1012.6 0.0
17/12:30am 21.7 25.1 19.4 87 1.5 CALM 0 0 0 0 1013.1 1012.8 0.0
17/12:00am 22.3 25.9 19.7 85 1.7 CALM 0 0 0 0 1013.0 1012.7 0.0
 
Date/Time
CST
Temp
°C
App
Temp
°C
Dew
Point
°C
Rel
Hum
%
Delta-T
°C
Wind Press
QNH
hPa
Press
MSL
hPa
Rain since
9am
mm
Dir  Spd
km/h
Gust
km/h
Spd
kts
Gust
kts
16/11:30pm 22.6 26.0 19.4 82 2.0 CALM 0 0 0 0 1012.9 1012.6 0.0
16/11:00pm 22.6 24.9 19.4 82 2.0 ESE 6 6 3 3 1012.9 1012.6 0.0
16/10:30pm 23.4 26.1 19.5 79 2.5 E 4 6 2 3 1012.9 1012.6 0.0
16/10:00pm 24.7 26.9 19.5 73 3.3 ESE 7 9 4 5 1013.0 1012.7 0.0
16/09:30pm 24.3 27.4 19.6 75 3.0 ESE 2 7 1 4 1012.8 1012.5 0.0
16/09:00pm 25.1 28.6 19.5 71 3.6 CALM 0 0 0 0 1012.7 1012.4 0.0
16/08:30pm 26.5 28.6 18.9 63 4.9 SSE 6 6 3 3 1012.3 1012.0 0.0
16/08:00pm 27.3 29.6 19.4 62 5.1 SSE 6 9 3 5 1011.9 1011.6 0.0
16/07:30pm 28.3 29.4 18.1 54 6.5 SE 9 13 5 7 1011.6 1011.3 0.0
16/07:00pm 30.1 31.9 19.5 53 6.9 SE 9 11 5 6 1011.3 1011.0 0.0
16/06:30pm 33.3 33.7 16.2 36 10.8 SE 9 13 5 7 1011.0 1010.7 0.0
16/06:00pm 34.6 34.5 16.0 33 11.7 S 11 15 6 8 1010.6 1010.3 0.0
16/05:30pm 35.1 34.4 15.4 30 12.4 S 13 19 7 10 1010.2 1009.9 0.0
16/05:00pm 35.4 34.4 14.6 28 12.9 S 13 20 7 11 1010.0 1009.7 0.0
16/04:30pm 35.6 34.5 15.3 29 12.8 S 15 19 8 10 1009.8 1009.5 0.0
16/04:00pm 36.2 35.1 16.4 31 12.6 S 17 22 9 12 1009.7 1009.4 0.0
16/03:30pm 36.0 34.7 15.7 30 12.8 SSE 17 24 9 13 1009.9 1009.6 0.0
16/03:00pm 35.8 34.0 15.5 29 12.8 SE 19 26 10 14 1010.1 1009.8 0.0
16/02:30pm 36.0 35.0 15.7 30 12.8 SSE 15 28 8 15 1010.3 1010.0 0.0
16/02:00pm 36.1 35.6 15.8 30 12.8 E 13 24 7 13 1010.6 1010.3 0.0
16/01:30pm 36.3 36.4 15.4 28 13.2 SSE 9 17 5 9 1010.9 1010.6 0.0
16/01:00pm 35.0 34.6 15.3 30 12.3 SSE 11 17 6 9 1011.4 1011.1 0.0
16/12:30pm 34.5 34.8 15.9 33 11.7 SSE 9 15 5 8 1011.9 1011.6 0.0
16/12:00pm 34.2 35.1 16.5 34 11.2 NNW 7 9 4 5 1012.4 1012.1 0.0
16/11:30am 33.2 34.1 16.5 36 10.6 ESE 7 13 4 7 1013.2 1012.9 0.0
16/11:00am 32.3 32.3 15.3 35 10.5 SSE 9 15 5 8 1013.8 1013.5 0.0
16/10:30am 31.1 31.4 15.1 38 9.9 S 7 13 4 7 1013.8 1013.5 0.0
16/10:00am 29.8 31.1 17.6 48 7.8 ENE 7 9 4 5 1013.8 1013.5 0.0
16/09:30am 28.1 29.4 17.0 51 7.0 SW 6 7 3 4 1013.6 1013.3 0.0
16/09:00am 25.8 28.2 18.0 62 4.9 WSW 2 7 1 4 1013.3 1013.0 0.0
16/08:30am 23.8 25.6 18.4 72 3.4 SW 6 7 3 4 1013.2 1012.9 0.0
16/08:00am 21.5 23.6 18.9 85 1.6 SSW 6 7 3 4 1013.1 1012.8 0.0
16/07:30am 18.5 21.3 17.9 96 0.4 CALM 0 0 0 0 1012.8 1012.5 0.0
16/07:00am 17.9 20.5 17.4 97 0.3 CALM 0 0 0 0 1012.5 1012.2 0.0
16/06:30am 18.0 20.6 17.5 97 0.3 CALM 0 0 0 0 1012.1 1011.8 0.0
16/06:00am 18.2 19.8 17.9 98 0.2 NNE 6 7 3 4 1011.8 1011.5 0.0
16/05:30am 18.2 20.3 18.0 99 0.1 NE 4 9 2 5 1011.5 1011.2 0.0
16/05:00am 18.6 21.5 18.1 97 0.3 CALM 0 0 0 0 1011.2 1010.9 0.0
16/04:30am 18.9 21.8 18.2 96 0.4 CALM 0 0 0 0 1011.1 1010.8 0.0
16/04:00am 18.6 21.0 16.9 90 1.0 CALM 0 0 0 0 1011.1 1010.8 0.0
16/03:30am 18.8 21.2 17.1 90 1.0 CALM 0 0 0 0 1011.1 1010.8 0.0
16/03:00am 19.2 21.4 16.6 85 1.6 CALM 0 0 0 0 1011.3 1011.0 0.0
16/02:30am 18.9 20.9 16.0 83 1.7 CALM 0 0 0 0 1011.4 1011.1 0.0
16/02:00am 19.6 21.7 16.3 81 2.0 CALM 0 0 0 0 1011.6 1011.3 0.0
16/01:30am 19.7 22.1 16.9 84 1.7 CALM 0 0 0 0 1011.8 1011.5 0.0
16/01:00am 19.8 22.1 16.8 83 1.8 CALM 0 0 0 0 1011.9 1011.6 0.0
16/12:30am 20.3 22.7 16.9 81 2.1 CALM 0 0 0 0 1011.8 1011.5 0.0
16/12:00am 20.4 22.9 17.2 82 2.0 CALM 0 0 0 0 1011.9 1011.6 0.0
 
Date/Time
CST
Temp
°C
App
Temp
°C
Dew
Point
°C
Rel
Hum
%
Delta-T
°C
Wind Press
QNH
hPa
Press
MSL
hPa
Rain since
9am
mm
Dir  Spd
km/h
Gust
km/h
Spd
kts
Gust
kts
15/11:30pm 21.1 24.0 18.1 83 1.9 CALM 0 0 0 0 1012.1 1011.8 0.0
15/11:00pm 20.8 23.3 17.2 80 2.2 CALM 0 0 0 0 1012.2 1011.9 0.0
15/10:30pm 21.5 24.0 17.3 77 2.6 CALM 0 0 0 0 1012.2 1011.9 0.0
15/10:00pm 22.4 25.0 17.5 74 3.0 CALM 0 0 0 0 1012.0 1011.7 0.0
15/09:30pm 23.0 24.9 16.8 68 3.8 NW 2 6 1 3 1011.7 1011.4 0.0
15/09:00pm 23.5 25.8 16.8 66 4.1 CALM 0 0 0 0 1011.3 1011.0 0.0
15/08:30pm 23.8 25.4 15.0 57 5.3 CALM 0 0 0 0 1010.8 1010.5 0.0
15/08:00pm 26.0 26.7 15.7 53 6.3 E 6 7 3 4 1010.3 1010.0 0.0
15/07:30pm 26.6 27.1 16.5 54 6.3 E 9 11 5 6 1009.9 1009.6 0.0
15/07:00pm 26.7 27.3 16.9 55 6.1 ESE 9 11 5 6 1009.5 1009.2 0.0
15/06:59pm 27.0 27.8 17.2 55 6.1 ESE 9 11 5 6 1009.4 1009.1 0.0
15/06:30pm 32.4 30.9 10.4 26 12.7 ESE 9 13 5 7 1009.0 1008.7 0.0
15/06:00pm 34.3 33.0 11.4 25 13.5 ESE 9 13 5 7 1008.7 1008.4 0.0
15/05:30pm 35.3 32.6 7.4 18 15.6 ESE 11 15 6 8 1008.5 1008.2 0.0
15/05:00pm 35.6 33.7 11.9 24 14.2 E 13 17 7 9 1008.4 1008.1 0.0
15/04:30pm 35.5 33.2 10.5 22 14.6 ENE 13 24 7 13 1008.3 1008.0 0.0
15/04:00pm 36.2 35.0 10.4 21 15.1 E 7 15 4 8 1008.4 1008.1 0.0
15/03:30pm 36.0 35.2 11.6 23 14.6 NNE 7 15 4 8 1008.5 1008.2 0.0
15/03:00pm 35.7 34.6 12.0 24 14.2 NNE 9 17 5 9 1008.9 1008.6 0.0
15/02:30pm 35.4 32.7 11.7 23 14.1 NE 17 20 9 11 1009.3 1009.0 0.0
15/02:00pm 35.0 33.0 8.7 20 14.9 W 9 15 5 8 1009.5 1009.2 0.0
15/01:30pm 34.9 32.1 8.6 20 14.9 ENE 13 19 7 10 1010.1 1009.8 0.0
15/01:00pm 34.5 32.8 9.7 22 14.3 ENE 9 11 5 6 1010.9 1010.6 0.0
15/12:30pm 33.6 32.0 11.5 26 13.0 ENE 11 15 6 8 1011.6 1011.3 0.0
15/12:00pm 33.3 32.9 12.9 29 12.3 W 7 13 4 7 1012.0 1011.7 0.0
15/11:30am 32.8 32.6 12.9 29 11.9 NNE 6 9 3 5 1012.5 1012.2 0.0
15/11:00am 31.7 31.3 12.5 31 11.4 ESE 6 9 3 5 1012.9 1012.6 0.0
15/10:30am 30.1 28.6 9.1 27 11.7 SSE 7 11 4 6 1013.0 1012.7 0.0

Other formats

Comma delimited format used in spreadsheet applications
http://www.bom.gov.au/fwo/IDD60801/IDD60801.94216.axf

JavaScript Object Notation format (JSON) in row-major order
http://www.bom.gov.au/fwo/IDD60801/IDD60801.94216.json

Data quality

Most of these data are generated automatically and are frequently updated. Quality checks on data are not normally performed. It is possible for incorrect values to appear. Refer to information at About Latest Weather Observations and please check the disclaimer before using these data.